createdAt,value
2022-12-18T00:00:02.784Z,243.83
2022-12-18T00:02:31.255Z,228.23
2022-12-18T00:04:59.918Z,260.23
2022-12-18T00:07:28.350Z,203.50
2022-12-18T00:09:56.817Z,271.67
2022-12-18T00:12:26.639Z,235.67
2022-12-18T00:14:55.084Z,227.67
2022-12-18T00:17:23.617Z,251.87
2022-12-18T00:19:52.066Z,305.60
2022-12-18T00:22:20.521Z,272.67
2022-12-18T00:24:49.329Z,235.20
2022-12-18T00:27:17.700Z,276.13
2022-12-18T00:29:47.730Z,216.03
2022-12-18T00:32:16.192Z,239.00
2022-12-18T00:34:44.735Z,220.90
2022-12-18T00:37:18.291Z,290.27
2022-12-18T00:39:50.758Z,277.83
2022-12-18T00:42:36.880Z,252.87
2022-12-18T00:45:12.386Z,266.80
2022-12-18T00:47:41.805Z,328.93
2022-12-18T00:50:11.377Z,257.47
2022-12-18T00:52:40.173Z,227.00
2022-12-18T00:55:09.341Z,276.93
2022-12-18T00:57:38.085Z,228.83
2022-12-18T01:00:10.522Z,258.23
2022-12-18T01:02:39.043Z,286.20
2022-12-18T01:05:08.277Z,288.90
2022-12-18T01:07:36.685Z,294.63
2022-12-18T01:10:05.700Z,281.93
2022-12-18T01:12:34.320Z,281.33
2022-12-18T01:15:02.805Z,276.47
2022-12-18T01:17:32.800Z,262.10
2022-12-18T01:20:02.340Z,252.37
2022-12-18T01:22:30.873Z,225.03
2022-12-18T01:24:59.359Z,291.10
2022-12-18T01:27:27.781Z,289.77
2022-12-18T01:29:56.321Z,258.37
2022-12-18T01:32:25.133Z,241.23
2022-12-18T01:34:54.932Z,215.33
2022-12-18T01:37:23.239Z,208.90
2022-12-18T01:39:53.385Z,206.17
2022-12-18T01:42:22.010Z,196.53
2022-12-18T01:45:05.836Z,227.03
2022-12-18T01:47:40.689Z,192.47
2022-12-18T01:50:13.686Z,226.03
2022-12-18T01:52:43.935Z,219.30
2022-12-18T01:55:13.222Z,177.43
2022-12-18T01:57:42.299Z,187.33
2022-12-18T02:00:14.198Z,262.53
2022-12-18T02:02:43.420Z,301.33
2022-12-18T02:05:14.938Z,237.77
2022-12-18T02:07:51.450Z,234.27
2022-12-18T02:10:23.237Z,210.20
2022-12-18T02:12:55.590Z,211.80
2022-12-18T02:15:29.825Z,223.93
2022-12-18T02:18:00.715Z,196.20
2022-12-18T02:20:35.812Z,236.00
2022-12-18T02:23:12.040Z,213.37
2022-12-18T02:26:15.625Z,231.50
2022-12-18T02:28:48.064Z,188.20
2022-12-18T02:31:20.329Z,193.70
2022-12-18T02:33:49.182Z,192.87
2022-12-18T02:36:19.436Z,217.87
2022-12-18T02:38:48.680Z,197.60
2022-12-18T02:41:17.671Z,204.03
2022-12-18T02:43:50.939Z,250.67
2022-12-18T02:46:33.046Z,212.73
2022-12-18T02:49:09.257Z,213.93
2022-12-18T02:51:45.725Z,229.97
2022-12-18T02:54:23.779Z,188.20
2022-12-18T02:56:55.021Z,235.23
2022-12-18T02:59:30.369Z,257.37
2022-12-18T03:02:03.638Z,237.97
2022-12-18T03:04:36.557Z,189.53
2022-12-18T03:07:12.927Z,209.90
2022-12-18T03:09:44.892Z,202.27
2022-12-18T03:12:25.898Z,218.50
2022-12-18T03:14:58.920Z,189.50
2022-12-18T03:17:29.518Z,195.30
2022-12-18T03:20:00.932Z,173.27
2022-12-18T03:22:30.510Z,162.63
2022-12-18T03:24:59.653Z,199.40
2022-12-18T03:27:29.115Z,169.87
2022-12-18T03:30:08.208Z,155.60
2022-12-18T03:32:41.524Z,180.53
2022-12-18T03:35:11.504Z,197.87
2022-12-18T03:37:40.062Z,298.33
2022-12-18T03:40:09.767Z,283.27
2022-12-18T03:42:45.489Z,274.93
2022-12-18T03:45:20.557Z,265.47
2022-12-18T03:47:55.853Z,190.60
2022-12-18T03:50:27.319Z,205.47
2022-12-18T03:53:01.978Z,192.47
2022-12-18T03:55:33.444Z,219.30
2022-12-18T03:58:02.903Z,215.47
2022-12-18T04:00:33.899Z,204.30
2022-12-18T04:03:03.752Z,191.43
2022-12-18T04:05:33.106Z,177.70
2022-12-18T04:08:02.041Z,223.60
2022-12-18T04:10:30.682Z,162.33
2022-12-18T04:12:59.596Z,207.90
2022-12-18T04:15:28.067Z,187.30
2022-12-18T04:17:57.856Z,192.77
2022-12-18T04:20:26.188Z,167.90
2022-12-18T04:22:54.600Z,192.53
2022-12-18T04:25:23.165Z,175.47
2022-12-18T04:27:51.503Z,163.37
2022-12-18T04:30:19.928Z,200.50
2022-12-18T04:32:52.206Z,229.40
2022-12-18T04:35:22.309Z,207.37
2022-12-18T04:37:50.824Z,225.40
2022-12-18T04:40:19.197Z,246.50
2022-12-18T04:42:47.598Z,245.93
2022-12-18T04:45:16.172Z,231.60
2022-12-18T04:47:44.646Z,205.70
2022-12-18T04:50:13.152Z,154.73
2022-12-18T04:52:42.791Z,150.30
2022-12-18T04:55:11.425Z,147.17
2022-12-18T04:57:39.852Z,191.37
2022-12-18T05:00:09.520Z,177.07
2022-12-18T05:02:37.941Z,219.13
2022-12-18T05:05:07.462Z,234.17
2022-12-18T05:07:35.922Z,218.77
2022-12-18T05:10:07.070Z,176.80
2022-12-18T05:12:55.593Z,181.10
2022-12-18T05:15:24.084Z,159.17
2022-12-18T05:17:52.642Z,151.07
2022-12-18T05:20:21.179Z,165.60
2022-12-18T05:22:49.625Z,143.37
2022-12-18T05:25:19.708Z,151.80
2022-12-18T05:27:49.584Z,168.53
2022-12-18T05:30:18.839Z,144.93
2022-12-18T05:32:47.241Z,198.90
2022-12-18T05:35:15.642Z,242.73
2022-12-18T05:37:44.094Z,207.57
2022-12-18T05:40:13.620Z,177.63
2022-12-18T05:42:43.652Z,199.40
2022-12-18T05:45:12.292Z,204.33
2022-12-18T05:47:40.754Z,239.37
2022-12-18T05:50:10.136Z,212.30
2022-12-18T05:52:38.570Z,155.37
2022-12-18T05:55:07.485Z,186.83
2022-12-18T05:57:35.888Z,180.27
2022-12-18T06:00:06.243Z,159.10
2022-12-18T06:02:34.804Z,137.40
2022-12-18T06:05:03.159Z,177.47
2022-12-18T06:07:31.622Z,168.93
2022-12-18T06:10:00.221Z,151.30
2022-12-18T06:12:28.597Z,174.97
2022-12-18T06:14:56.942Z,170.50
2022-12-18T06:17:30.965Z,164.83
2022-12-18T06:19:59.524Z,185.32
2022-12-18T06:22:27.996Z,132.60
2022-12-18T06:24:56.594Z,151.73
2022-12-18T06:27:24.958Z,206.97
2022-12-18T06:29:54.004Z,151.97
2022-12-18T06:32:22.535Z,156.47
2022-12-18T06:34:52.193Z,131.00
2022-12-18T06:37:20.630Z,146.67
2022-12-18T06:39:49.008Z,168.40
2022-12-18T06:42:17.374Z,205.63
2022-12-18T06:44:45.780Z,186.37
2022-12-18T06:47:14.111Z,231.43
2022-12-18T06:49:42.435Z,239.13
2022-12-18T06:52:12.459Z,212.77
2022-12-18T06:54:40.987Z,176.40
2022-12-18T06:57:09.567Z,185.33
2022-12-18T06:59:37.967Z,190.07
2022-12-18T07:02:06.754Z,233.67
2022-12-18T07:04:35.281Z,172.83
2022-12-18T07:07:03.946Z,201.13
2022-12-18T07:09:33.901Z,201.20
2022-12-18T07:12:02.577Z,242.37
2022-12-18T07:14:30.952Z,213.03
2022-12-18T07:16:59.373Z,238.20
2022-12-18T07:19:28.614Z,218.13
2022-12-18T07:21:57.761Z,183.20
2022-12-18T07:24:26.527Z,231.83
2022-12-18T07:26:56.327Z,182.03
2022-12-18T07:29:24.891Z,215.07
2022-12-18T07:31:53.269Z,254.07
2022-12-18T07:34:21.845Z,190.13
2022-12-18T07:36:50.254Z,211.97
2022-12-18T07:39:18.806Z,210.63
2022-12-18T07:42:09.374Z,240.27
2022-12-18T07:44:39.959Z,215.43
2022-12-18T07:47:11.951Z,243.83
2022-12-18T07:49:40.795Z,240.87
2022-12-18T07:52:10.438Z,291.47
2022-12-18T07:54:38.886Z,224.53
2022-12-18T07:57:21.254Z,230.60
2022-12-18T08:00:21.430Z,230.03
2022-12-18T08:02:50.239Z,171.90
2022-12-18T08:05:19.264Z,233.37
2022-12-18T08:07:48.006Z,175.33
2022-12-18T08:10:17.193Z,206.47
2022-12-18T08:12:46.301Z,193.47
2022-12-18T08:15:17.109Z,185.33
2022-12-18T08:17:46.425Z,192.37
2022-12-18T08:20:16.023Z,182.50
2022-12-18T08:22:44.730Z,204.50
2022-12-18T08:25:13.416Z,189.60
2022-12-18T08:27:42.145Z,208.90
2022-12-18T08:30:12.603Z,206.47
2022-12-18T08:32:42.681Z,207.77
2022-12-18T08:35:13.131Z,194.03
2022-12-18T08:37:47.063Z,201.13
2022-12-18T08:40:15.838Z,228.85
2022-12-18T08:43:02.824Z,176.90
2022-12-18T08:45:33.751Z,195.83
2022-12-18T08:48:03.916Z,153.67
2022-12-18T08:50:32.454Z,169.57
2022-12-18T08:53:00.876Z,190.50
2022-12-18T08:55:29.347Z,214.57
2022-12-18T08:58:18.698Z,152.37
2022-12-18T09:00:50.232Z,182.03
2022-12-18T09:03:23.522Z,133.20
2022-12-18T09:05:52.224Z,155.07
2022-12-18T09:08:20.733Z,152.60
2022-12-18T09:10:51.442Z,153.00
2022-12-18T09:13:20.749Z,203.73
2022-12-18T09:15:50.677Z,215.70
2022-12-18T09:18:22.035Z,128.93
2022-12-18T09:20:54.381Z,183.07
2022-12-18T09:23:35.155Z,203.97
2022-12-18T09:29:11.960Z,113.17
2022-12-18T09:31:49.065Z,141.17
2022-12-18T09:34:19.478Z,118.13
2022-12-18T09:36:48.762Z,125.43
2022-12-18T09:39:17.434Z,116.27
2022-12-18T09:41:55.554Z,189.77
2022-12-18T09:44:27.581Z,121.97
2022-12-18T09:47:07.681Z,142.60
2022-12-18T09:49:41.467Z,122.17
2022-12-18T09:52:15.522Z,120.30
2022-12-18T09:54:48.867Z,122.68
2022-12-18T10:04:53.327Z,118.90
2022-12-18T10:08:10.775Z,192.13
2022-12-18T10:10:47.212Z,116.90
2022-12-18T10:16:58.852Z,168.33
2022-12-18T10:59:11.341Z,134.47
2022-12-18T11:02:13.569Z,147.10
2022-12-18T11:04:53.472Z,147.90
2022-12-18T11:07:25.575Z,200.73
2022-12-18T11:10:11.116Z,143.77
2022-12-18T11:13:01.678Z,156.30
2022-12-18T11:15:43.502Z,141.17
2022-12-18T11:21:15.906Z,172.47
2022-12-18T11:23:49.316Z,136.97
2022-12-18T11:26:17.871Z,160.87
2022-12-18T11:28:49.878Z,145.87
2022-12-18T11:31:26.115Z,159.00
2022-12-18T11:34:29.043Z,133.77
2022-12-18T11:37:01.154Z,137.50
2022-12-18T11:39:36.800Z,136.63
2022-12-18T11:42:13.948Z,136.38
2022-12-18T11:44:48.706Z,143.73
2022-12-18T11:47:27.895Z,116.20
2022-12-18T11:50:11.925Z,113.93
2022-12-18T11:52:45.083Z,129.93
2022-12-18T11:55:17.823Z,132.90
2022-12-18T11:57:53.117Z,161.18
2022-12-18T12:00:22.623Z,79.65
2022-12-18T12:03:14.301Z,70.18
2022-12-18T12:05:51.032Z,67.65
2022-12-18T12:08:24.551Z,78.05
2022-12-18T12:11:01.088Z,65.88
2022-12-18T12:13:41.036Z,71.55
2022-12-18T12:16:18.269Z,62.40
2022-12-18T12:18:58.820Z,98.43
2022-12-18T12:21:34.828Z,102.32
2022-12-18T12:24:13.418Z,80.00
2022-12-18T12:26:47.363Z,72.93
2022-12-18T12:29:30.949Z,98.53
2022-12-18T12:32:09.569Z,119.93
2022-12-18T12:34:46.864Z,98.30
2022-12-18T12:37:23.984Z,130.03
2022-12-18T12:39:54.079Z,145.70
2022-12-18T12:42:49.320Z,129.65
2022-12-18T12:45:20.732Z,139.07
2022-12-18T12:47:51.601Z,105.23
2022-12-18T12:50:22.503Z,88.65
2022-12-18T12:52:54.103Z,85.25
2022-12-18T12:55:24.893Z,95.55
2022-12-18T12:58:00.218Z,72.50
2022-12-18T13:00:31.718Z,76.85
2022-12-18T13:03:08.583Z,74.32
2022-12-18T13:05:45.257Z,79.57
2022-12-18T13:08:25.526Z,84.75
2022-12-18T13:11:18.645Z,70.68
2022-12-18T13:13:51.705Z,65.80
2022-12-18T13:16:22.673Z,64.00
2022-12-18T13:18:52.320Z,89.80
2022-12-18T13:21:25.645Z,75.43
2022-12-18T13:23:54.349Z,72.00
2022-12-18T13:26:34.019Z,103.90
2022-12-18T13:29:07.121Z,74.90
2022-12-18T13:32:03.615Z,74.60
2022-12-18T13:34:33.534Z,71.72
2022-12-18T13:37:42.135Z,67.30
2022-12-18T13:40:59.890Z,70.95
2022-12-18T13:43:38.798Z,67.25
2022-12-18T13:46:20.293Z,71.82
2022-12-18T13:48:58.583Z,84.30
2022-12-18T13:51:28.423Z,76.90
2022-12-18T13:54:01.281Z,72.40
2022-12-18T13:56:31.607Z,72.93
2022-12-18T13:59:15.359Z,89.30
2022-12-18T14:01:47.100Z,72.05
2022-12-18T14:04:23.445Z,65.75
2022-12-18T14:06:54.874Z,66.10
2022-12-18T14:09:32.274Z,68.90
2022-12-18T14:12:15.186Z,63.63
2022-12-18T14:14:46.490Z,83.78
2022-12-18T14:17:17.938Z,70.30
2022-12-18T14:19:48.956Z,61.72
2022-12-18T14:22:19.527Z,60.08
2022-12-18T14:24:50.350Z,73.90
2022-12-18T14:27:24.686Z,105.82
2022-12-18T14:29:53.619Z,105.60
2022-12-18T14:32:23.620Z,51.65
2022-12-18T14:34:55.085Z,84.60
2022-12-18T14:37:26.447Z,113.78
2022-12-18T14:40:04.432Z,142.30
2022-12-18T14:42:37.707Z,157.50
2022-12-18T14:45:41.492Z,128.35
2022-12-18T14:48:22.825Z,129.50
2022-12-18T14:51:01.784Z,86.28
2022-12-18T14:53:44.509Z,116.82
2022-12-18T14:56:20.144Z,117.28
2022-12-18T14:58:50.020Z,145.85
2022-12-18T15:04:29.354Z,150.68
2022-12-18T15:07:17.257Z,152.90
2022-12-18T15:09:49.470Z,148.07
2022-12-18T15:12:28.635Z,151.07
2022-12-18T15:14:57.194Z,155.63
2022-12-18T15:17:26.949Z,157.70
2022-12-18T15:20:00.475Z,159.73
2022-12-18T15:22:30.408Z,148.25
2022-12-18T15:25:00.068Z,167.10
2022-12-18T15:27:32.626Z,148.13
2022-12-18T15:30:21.692Z,130.60
2022-12-18T15:32:51.011Z,129.57
2022-12-18T15:35:21.968Z,139.50
2022-12-18T15:37:51.067Z,123.77
2022-12-18T15:40:20.967Z,140.10
2022-12-18T15:43:10.898Z,209.03
2022-12-18T15:45:39.482Z,144.83
2022-12-18T15:48:19.799Z,140.10
2022-12-18T15:50:48.396Z,117.37
2022-12-18T15:53:17.185Z,171.73
2022-12-18T15:56:03.219Z,200.77
2022-12-18T15:58:33.828Z,148.30
2022-12-18T16:01:04.955Z,257.70
2022-12-18T16:03:33.685Z,207.33
2022-12-18T16:06:04.110Z,156.83
2022-12-18T16:08:32.892Z,176.13
2022-12-18T16:11:02.301Z,184.77
2022-12-18T16:13:32.485Z,191.17
2022-12-18T16:16:01.913Z,218.37
2022-12-18T16:18:31.480Z,216.70
2022-12-18T16:21:00.349Z,221.07
2022-12-18T16:23:29.500Z,246.63
2022-12-18T16:26:06.121Z,225.80
2022-12-18T16:28:58.282Z,239.60
2022-12-18T16:31:32.245Z,259.10
2022-12-18T16:34:24.961Z,251.85
2022-12-18T16:37:26.170Z,256.50
2022-12-18T16:39:58.754Z,217.53
2022-12-18T16:42:27.447Z,238.00
2022-12-18T16:45:01.115Z,236.40
2022-12-18T16:47:37.496Z,218.20
2022-12-18T16:50:10.985Z,223.03
2022-12-18T16:52:50.186Z,237.43
2022-12-18T16:55:21.284Z,224.03
2022-12-18T17:01:07.419Z,225.23
2022-12-18T17:03:57.263Z,272.77
2022-12-18T17:06:42.517Z,185.30
2022-12-18T17:09:21.440Z,208.83
2022-12-18T17:11:54.228Z,202.10
2022-12-18T17:14:25.357Z,197.70
2022-12-18T17:17:19.919Z,213.03
2022-12-18T17:20:01.726Z,160.10
2022-12-18T17:22:30.382Z,187.65
2022-12-18T17:25:01.736Z,157.80
2022-12-18T17:27:38.106Z,186.57
2022-12-18T17:30:11.034Z,198.10
2022-12-18T17:32:41.097Z,181.83
2022-12-18T17:35:10.128Z,180.40
2022-12-18T17:37:38.660Z,191.90
2022-12-18T17:40:11.044Z,155.83
2022-12-18T17:42:39.487Z,210.73
2022-12-18T17:45:09.031Z,192.63
2022-12-18T17:47:37.703Z,192.60
2022-12-18T17:50:09.213Z,200.50
2022-12-18T17:52:43.411Z,166.63
2022-12-18T17:55:12.112Z,164.70
2022-12-18T17:57:40.766Z,165.07
2022-12-18T18:00:11.387Z,197.00
2022-12-18T18:02:40.110Z,142.00
2022-12-18T18:05:11.942Z,168.97
2022-12-18T18:07:42.854Z,159.07
2022-12-18T18:10:14.715Z,196.10
2022-12-18T18:13:10.169Z,202.87
2022-12-18T18:15:41.107Z,166.13
2022-12-18T18:18:22.111Z,152.20
2022-12-18T18:20:54.673Z,186.67
2022-12-18T18:29:03.020Z,150.23
2022-12-18T18:31:36.294Z,215.25
2022-12-18T18:34:36.848Z,181.43
2022-12-18T18:37:07.106Z,177.37
2022-12-18T18:39:35.681Z,201.83
2022-12-18T18:42:04.768Z,204.80
2022-12-18T18:44:33.555Z,175.90
2022-12-18T18:47:02.307Z,182.57
2022-12-18T18:49:32.731Z,164.13
2022-12-18T18:52:02.763Z,183.63
2022-12-18T18:54:32.839Z,230.27
2022-12-18T18:57:20.063Z,202.87
2022-12-18T18:59:49.659Z,189.20
2022-12-18T19:02:20.132Z,199.53
2022-12-18T19:04:49.616Z,172.90
2022-12-18T19:07:29.629Z,180.77
2022-12-18T19:10:05.468Z,202.87
2022-12-18T19:12:53.442Z,181.40
2022-12-18T19:15:23.910Z,194.33
2022-12-18T19:17:54.088Z,219.07
2022-12-18T19:20:23.501Z,217.93
2022-12-18T19:22:57.052Z,218.30
2022-12-18T19:25:41.148Z,320.17
2022-12-18T19:28:21.362Z,218.48
2022-12-18T19:30:58.771Z,228.60
2022-12-18T19:33:43.166Z,224.17
2022-12-18T19:36:14.812Z,250.88
2022-12-18T19:38:45.366Z,215.33
2022-12-18T19:41:21.052Z,254.83
2022-12-18T19:43:56.737Z,234.60
2022-12-18T19:46:32.722Z,283.97
2022-12-18T19:49:17.337Z,239.77
2022-12-18T19:51:46.578Z,248.03
2022-12-18T19:54:17.489Z,294.87
2022-12-18T19:56:48.554Z,268.70
2022-12-18T19:59:18.657Z,230.47
2022-12-18T20:01:50.369Z,236.63
2022-12-18T20:04:19.034Z,258.50
2022-12-18T20:06:49.800Z,253.83
2022-12-18T20:09:19.101Z,255.70
2022-12-18T20:11:49.346Z,251.47
2022-12-18T20:14:22.902Z,254.93
2022-12-18T20:16:54.377Z,248.02
2022-12-18T20:19:23.683Z,255.17
2022-12-18T20:21:53.098Z,323.67
2022-12-18T20:24:21.621Z,297.13
2022-12-18T20:26:56.023Z,249.90
2022-12-18T20:29:24.423Z,246.20
2022-12-18T20:31:53.120Z,239.07
2022-12-18T20:37:04.555Z,234.18
2022-12-18T20:39:38.230Z,253.10
2022-12-18T20:42:08.411Z,231.77
2022-12-18T20:44:39.257Z,264.40
2022-12-18T20:47:08.557Z,263.02
2022-12-18T20:49:37.393Z,248.98
2022-12-18T20:52:07.453Z,304.80
2022-12-18T20:54:35.957Z,246.88
2022-12-18T20:57:04.462Z,248.88
2022-12-18T20:59:36.719Z,247.07
2022-12-18T21:02:05.458Z,230.50
2022-12-18T21:04:33.991Z,233.05
2022-12-18T21:07:03.056Z,258.60
2022-12-18T21:09:37.691Z,256.40
2022-12-18T21:12:25.830Z,215.15
2022-12-18T21:14:55.747Z,169.38
2022-12-18T21:17:24.188Z,208.33
2022-12-18T21:19:55.247Z,200.27
2022-12-18T21:22:24.159Z,162.48
2022-12-18T21:24:52.585Z,184.43
2022-12-18T21:27:21.193Z,172.40
2022-12-18T21:29:49.871Z,160.20
2022-12-18T21:32:21.696Z,189.93
2022-12-18T21:34:53.186Z,182.73
2022-12-18T21:37:21.655Z,165.38
2022-12-18T21:39:50.192Z,167.70
2022-12-18T21:42:36.190Z,181.00
2022-12-18T21:45:06.493Z,193.13
2022-12-18T21:47:36.252Z,210.60
2022-12-18T21:50:07.728Z,230.02
2022-12-18T21:52:36.251Z,236.27
2022-12-18T21:55:11.249Z,228.10
2022-12-18T21:57:40.171Z,235.43
2022-12-18T22:00:18.278Z,231.60
2022-12-18T22:03:17.723Z,238.02
2022-12-18T22:05:42.679Z,228.95
2022-12-18T22:08:13.547Z,204.25
2022-12-18T22:10:42.443Z,185.60
2022-12-18T22:13:11.148Z,201.13
2022-12-18T22:15:39.646Z,197.90
2022-12-18T22:18:09.707Z,176.07
2022-12-18T22:20:38.158Z,162.25
2022-12-18T22:23:06.675Z,152.98
2022-12-18T22:25:37.272Z,199.68
2022-12-18T22:28:25.548Z,173.10
2022-12-18T22:30:57.695Z,155.00
2022-12-18T22:33:29.588Z,149.65
2022-12-18T22:35:59.270Z,156.68
2022-12-18T22:38:30.080Z,152.75
2022-12-18T22:40:58.554Z,148.57
2022-12-18T22:43:27.024Z,150.82
2022-12-18T22:45:55.560Z,173.10
2022-12-18T22:48:24.176Z,141.63
2022-12-18T22:50:54.713Z,160.73
2022-12-18T22:53:28.167Z,161.25
2022-12-18T22:56:02.333Z,191.73
2022-12-18T22:58:30.882Z,187.70
2022-12-18T23:00:59.486Z,177.27
2022-12-18T23:03:28.008Z,168.88
2022-12-18T23:06:05.604Z,164.07
2022-12-18T23:08:34.090Z,168.25
2022-12-18T23:11:02.988Z,173.75
2022-12-18T23:13:31.451Z,164.98
2022-12-18T23:15:59.997Z,159.65
2022-12-18T23:18:28.451Z,159.90
2022-12-18T23:20:56.901Z,167.77
2022-12-18T23:23:27.996Z,166.70
2022-12-18T23:26:02.703Z,155.35
2022-12-18T23:31:06.549Z,173.18
2022-12-18T23:36:04.289Z,169.48
2022-12-18T23:38:34.850Z,151.10
2022-12-18T23:41:08.706Z,167.73
2022-12-18T23:43:37.212Z,150.70
2022-12-18T23:46:10.812Z,161.73
2022-12-18T23:48:39.425Z,171.00
2022-12-18T23:51:09.030Z,148.15
2022-12-18T23:53:38.800Z,181.85
2022-12-18T23:56:08.491Z,181.40
2022-12-18T23:58:37.765Z,174.43
